Time;durP1;ratioP1;P1;durP2;ratioP2;P2;SDS_P1;SDS_P2;PMS_P1;PMS_P2;Temp;Humidity;BMP_temperature;BMP_pressure;BME280_temperature;BME280_humidity;BME280_pressure;Samples;Min_cycle;Max_cycle;Signal;HPM_P1;HPM_P2
2023/05/11 04:18:54;;;;;;;0.60;0.60;;;;;;;8.81;100.00;96101.00;5006299;28;105276;-62
2023/05/11 04:21:21;;;;;;;0.93;0.70;;;;;;;8.81;100.00;96097.53;4990225;28;103058;-62
2023/05/11 04:23:48;;;;;;;0.80;0.80;;;;;;;8.72;100.00;96102.47;4990660;28;101832;-62
2023/05/11 04:26:15;;;;;;;2.53;0.70;;;;;;;8.79;100.00;96104.94;5008946;28;105137;-62
2023/05/11 04:28:44;;;;;;;1.87;0.90;;;;;;;8.76;100.00;96100.13;4990535;28;101848;-62
2023/05/11 04:31:11;;;;;;;1.00;0.90;;;;;;;8.62;100.00;96101.53;4990617;28;102863;-62
2023/05/11 04:33:40;;;;;;;1.23;0.70;;;;;;;8.62;100.00;96096.25;4989929;28;102226;-62
2023/05/11 04:36:09;;;;;;;0.50;0.50;;;;;;;8.67;100.00;96098.97;5005870;28;101755;-62
2023/05/11 04:38:36;;;;;;;1.13;0.70;;;;;;;8.68;100.00;96104.00;4989316;28;105495;-62
2023/05/11 04:41:04;;;;;;;1.03;0.60;;;;;;;8.63;100.00;96105.78;5005591;28;104907;-62
2023/05/11 04:46:58;;;;;;;0.43;0.43;;;;;;;8.68;100.00;96111.16;4987941;28;105536;-62
2023/05/11 04:49:25;;;;;;;0.67;0.57;;;;;;;8.73;100.00;96109.38;4991706;28;105398;-62
2023/05/11 04:51:53;;;;;;;2.10;0.70;;;;;;;8.78;100.00;96117.38;5005682;28;105297;-62
2023/05/11 04:54:20;;;;;;;0.50;0.50;;;;;;;8.70;100.00;96109.06;4989019;28;102489;-62
2023/05/11 04:56:47;;;;;;;0.60;0.60;;;;;;;8.69;100.00;96102.16;5005286;28;101985;-62
2023/05/11 04:59:14;;;;;;;1.13;0.60;;;;;;;8.71;100.00;96111.47;5005624;28;104526;-62
2023/05/11 05:01:41;;;;;;;0.63;0.63;;;;;;;8.69;100.00;96104.81;5004917;28;105213;-62
2023/05/11 05:04:28;;;;;;;0.70;0.70;;;;;;;8.73;100.00;96105.94;5005560;28;101695;-62
2023/05/11 05:06:57;;;;;;;0.77;0.70;;;;;;;8.69;100.00;96110.13;4988777;28;105079;-62
2023/05/11 05:09:24;;;;;;;0.60;0.60;;;;;;;8.74;100.00;96107.53;5004775;28;105900;-62
2023/05/11 05:11:51;;;;;;;0.77;0.70;;;;;;;8.66;100.00;96113.25;5008666;28;101948;-62
2023/05/11 05:14:19;;;;;;;0.83;0.60;;;;;;;8.78;100.00;96108.66;5004617;28;105509;-62
2023/05/11 05:16:46;;;;;;;0.60;0.60;;;;;;;8.75;100.00;96111.78;5004721;28;101896;-63
2023/05/11 05:19:13;;;;;;;0.80;0.80;;;;;;;8.75;100.00;96114.44;5005280;28;105238;-62
2023/05/11 05:21:40;;;;;;;0.80;0.80;;;;;;;8.88;100.00;96106.91;4991115;28;102485;-62
2023/05/11 05:24:27;;;;;;;0.60;0.60;;;;;;;8.80;100.00;96109.19;5008471;28;101883;-62
2023/05/11 05:26:54;;;;;;;0.60;0.60;;;;;;;8.87;100.00;96112.47;4993479;28;102926;-63
2023/05/11 05:29:21;;;;;;;0.70;0.70;;;;;;;8.83;100.00;96114.81;5008080;28;105446;-63
2023/05/11 05:31:48;;;;;;;0.87;0.50;;;;;;;8.81;100.00;96110.78;4995433;28;101905;-62
2023/05/11 05:34:45;;;;;;;0.80;0.80;;;;;;;8.86;100.00;96116.97;5007760;28;105364;-62
2023/05/11 05:37:13;;;;;;;1.50;0.50;;;;;;;8.87;100.00;96120.41;4991901;28;101859;-62
2023/05/11 05:39:41;;;;;;;1.33;0.47;;;;;;;8.71;100.00;96119.44;5008319;28;105802;-62
2023/05/11 05:42:09;;;;;;;0.50;0.50;;;;;;;8.76;100.00;96123.97;5007568;28;104928;-62
2023/05/11 05:45:15;;;;;;;0.40;0.40;;;;;;;8.69;100.00;96123.38;4991639;28;101925;-62
2023/05/11 05:47:43;;;;;;;1.53;0.50;;;;;;;8.55;100.00;96122.91;4991705;28;105257;-62
2023/05/11 05:50:10;;;;;;;0.57;0.57;;;;;;;8.54;100.00;96117.84;4992373;28;102848;-62
2023/05/11 05:52:38;;;;;;;0.40;0.40;;;;;;;8.49;100.00;96123.06;5008184;28;102070;-62
2023/05/11 05:55:07;;;;;;;0.33;0.33;;;;;;;8.49;100.00;96123.06;5011129;28;105195;-62
2023/05/11 05:57:34;;;;;;;0.40;0.40;;;;;;;8.51;100.00;96121.78;5008005;28;103442;-62
2023/05/11 06:00:02;;;;;;;0.57;0.40;;;;;;;8.46;100.00;96121.72;5007759;28;105817;-62
2023/05/11 06:02:29;;;;;;;1.03;0.50;;;;;;;8.52;100.00;96131.38;4991775;28;102317;-62
2023/05/11 06:04:57;;;;;;;0.67;0.67;;;;;;;8.63;100.00;96122.50;5007464;28;101953;-62
2023/05/11 06:07:24;;;;;;;0.50;0.50;;;;;;;8.56;100.00;96129.81;4990840;28;104882;-62
2023/05/11 06:09:51;;;;;;;0.40;0.40;;;;;;;8.55;100.00;96127.41;4990228;28;105044;-62
2023/05/11 06:12:19;;;;;;;0.60;0.60;;;;;;;8.56;100.00;96129.03;4990550;28;102028;-62
2023/05/11 06:14:48;;;;;;;0.40;0.40;;;;;;;8.63;100.00;96132.28;4990922;28;106233;-62
2023/05/11 06:17:15;;;;;;;0.60;0.60;;;;;;;8.62;100.00;96134.13;4993086;28;104015;-62
2023/05/11 06:19:43;;;;;;;0.73;0.70;;;;;;;8.68;100.00;96137.66;5007158;28;105189;-62
2023/05/11 06:22:10;;;;;;;0.77;0.77;;;;;;;8.66;100.00;96140.56;4990485;28;105581;-62
2023/05/11 06:24:39;;;;;;;2.20;0.83;;;;;;;8.74;100.00;96140.16;4990319;28;102188;-62
2023/05/11 06:27:06;;;;;;;0.60;0.60;;;;;;;8.72;100.00;96136.94;4990667;28;104993;-62
2023/05/11 06:29:35;;;;;;;0.60;0.60;;;;;;;8.67;100.00;96144.81;4989663;28;105042;-63
2023/05/11 06:32:04;;;;;;;0.80;0.80;;;;;;;8.68;100.00;96137.66;5006676;28;102004;-62
2023/05/11 06:34:34;;;;;;;1.07;0.77;;;;;;;8.67;100.00;96141.38;5005483;28;104662;-62
2023/05/11 06:37:01;;;;;;;0.60;0.60;;;;;;;8.62;100.00;96146.59;4999551;28;105338;-61
2023/05/11 06:39:28;;;;;;;0.40;0.40;;;;;;;8.64;100.00;96141.84;5011226;28;103053;-62
2023/05/11 06:41:55;;;;;;;1.13;0.60;;;;;;;8.76;100.00;96145.19;4997305;28;105173;-62
2023/05/11 06:44:22;;;;;;;0.63;0.60;;;;;;;8.84;100.00;96140.28;4990620;28;101889;-62
2023/05/11 06:46:55;;;;;;;1.00;0.50;;;;;;;8.74;100.00;96139.34;4988757;28;104771;-61
2023/05/11 06:49:22;;;;;;;0.50;0.50;;;;;;;8.74;100.00;96134.03;4989275;28;105845;-61
2023/05/11 06:51:49;;;;;;;0.50;0.40;;;;;;;8.73;100.00;96133.22;4996896;28;101981;-61
2023/05/11 06:54:16;;;;;;;0.47;0.47;;;;;;;8.72;100.00;96144.88;5003532;28;106230;-61
2023/05/11 06:56:44;;;;;;;0.67;0.50;;;;;;;8.84;100.00;96128.88;4999437;28;105023;-62
2023/05/11 06:59:11;;;;;;;0.40;0.40;;;;;;;8.70;100.00;96133.72;4990126;28;101996;-62
2023/05/11 07:01:38;;;;;;;0.50;0.50;;;;;;;8.70;100.00;96140.88;4992784;28;105755;-61
2023/05/11 07:04:07;;;;;;;1.10;0.60;;;;;;;8.82;100.00;96125.66;4989898;28;101903;-61
2023/05/11 07:06:34;;;;;;;0.67;0.60;;;;;;;8.93;100.00;96130.84;4990271;28;105042;-61
2023/05/11 07:09:03;;;;;;;1.40;0.57;;;;;;;8.97;100.00;96131.16;4988990;28;105348;-61
2023/05/11 07:11:31;;;;;;;0.50;0.50;;;;;;;8.98;100.00;96127.44;4989516;28;101948;-62
2023/05/11 07:13:59;;;;;;;0.73;0.50;;;;;;;8.85;100.00;96122.53;4991323;28;102368;-61
2023/05/11 07:16:26;;;;;;;1.73;0.50;;;;;;;8.95;100.00;96133.25;4990707;28;102605;-61
2023/05/11 07:18:53;;;;;;;0.73;0.60;;;;;;;8.97;100.00;96131.16;4990949;28;101837;-61
2023/05/11 07:21:22;;;;;;;0.40;0.40;;;;;;;9.00;100.00;96125.38;4989789;28;103859;-62
2023/05/11 07:23:49;;;;;;;0.50;0.50;;;;;;;9.14;100.00;96131.91;4991734;28;102003;-61
2023/05/11 07:26:15;;;;;;;0.57;0.57;;;;;;;9.18;100.00;96133.81;4989788;28;105359;-61
2023/05/11 07:28:42;;;;;;;0.50;0.50;;;;;;;9.01;100.00;96126.97;4989121;28;105120;-61
2023/05/11 07:31:09;;;;;;;0.40;0.40;;;;;;;8.96;100.00;96125.06;4989486;28;101975;-61
2023/05/11 07:33:38;;;;;;;0.60;0.60;;;;;;;9.08;100.00;96130.22;4989715;28;105216;-61
2023/05/11 07:36:06;;;;;;;0.93;0.30;;;;;;;9.15;100.00;96122.88;4989018;28;105909;-61
2023/05/11 07:38:34;;;;;;;0.83;0.60;;;;;;;9.11;100.00;96122.56;4988965;28;101893;-61
2023/05/11 07:41:01;;;;;;;0.40;0.40;;;;;;;9.06;100.00;96124.38;4989446;28;105106;-61
2023/05/11 07:43:29;;;;;;;2.40;0.80;;;;;;;9.24;100.00;96116.09;4992070;28;105316;-61
2023/05/11 07:45:56;;;;;;;0.60;0.60;;;;;;;9.28;100.00;96125.19;4989678;28;105041;-61
2023/05/11 07:48:22;;;;;;;1.67;1.17;;;;;;;9.22;100.00;96134.91;4988653;28;105196;-61
2023/05/11 07:50:49;;;;;;;1.50;0.80;;;;;;;9.31;100.00;96129.97;5005770;28;101861;-61
2023/05/11 07:53:17;;;;;;;1.43;1.00;;;;;;;9.34;100.00;96126.84;4990461;28;102872;-61
2023/05/11 07:55:45;;;;;;;1.23;0.80;;;;;;;9.45;100.00;96126.72;4990214;28;103028;-61
2023/05/11 07:58:12;;;;;;;1.20;0.80;;;;;;;9.48;100.00;96133.38;4989102;28;101936;-61
2023/05/11 08:00:39;;;;;;;1.30;0.50;;;;;;;9.51;100.00;96132.84;4989090;28;105176;-61
2023/05/11 08:03:06;;;;;;;0.60;0.60;;;;;;;9.54;100.00;96127.06;4989767;28;102582;-62
2023/05/11 08:05:36;;;;;;;0.70;0.53;;;;;;;9.52;100.00;96126.50;4994063;28;102209;-62
2023/05/11 08:08:03;;;;;;;0.50;0.50;;;;;;;9.43;100.00;96128.00;4989527;28;102538;-61
2023/05/11 08:10:30;;;;;;;0.30;0.30;;;;;;;9.49;100.00;96129.66;5005769;28;101904;-61
2023/05/11 08:13:00;;;;;;;0.43;0.43;;;;;;;9.52;100.00;96134.44;4990273;28;102374;-62
2023/05/11 08:15:27;;;;;;;0.40;0.40;;;;;;;9.67;100.00;96129.31;4989768;28;102598;-62
2023/05/11 08:17:54;;;;;;;0.60;0.60;;;;;;;9.74;100.00;96128.06;4989456;28;101820;-62
2023/05/11 08:20:21;;;;;;;0.50;0.50;;;;;;;9.83;100.00;96125.75;4990319;28;102337;-61
2023/05/11 08:22:48;;;;;;;0.30;0.30;;;;;;;9.57;100.00;96121.22;4988207;28;105866;-62
2023/05/11 08:25:17;;;;;;;0.30;0.30;;;;;;;9.62;100.00;96123.94;4990064;28;101979;-62
2023/05/11 08:27:44;;;;;;;1.03;0.30;;;;;;;9.75;100.00;96127.00;4993059;28;102244;-61
2023/05/11 08:30:13;;;;;;;0.93;0.30;;;;;;;9.66;100.00;96127.72;4988953;28;101939;-62
2023/05/11 08:32:40;;;;;;;0.30;0.30;;;;;;;9.79;100.00;96127.28;4989872;28;102637;-61
2023/05/11 08:35:08;;;;;;;0.40;0.40;;;;;;;9.68;100.00;96129.06;4989466;28;102786;-61
2023/05/11 08:37:35;;;;;;;0.63;0.60;;;;;;;10.03;100.00;96133.91;4990062;28;101627;-61
2023/05/11 08:40:02;;;;;;;0.30;0.30;;;;;;;9.89;100.00;96125.56;4988734;28;105061;-62
2023/05/11 08:42:33;;;;;;;0.40;0.40;;;;;;;10.15;100.00;96119.41;4989076;28;102693;-61
2023/05/11 08:45:02;;;;;;;0.30;0.30;;;;;;;10.18;100.00;96124.22;4989865;28;101697;-61
2023/05/11 08:47:31;;;;;;;0.50;0.40;;;;;;;10.31;100.00;96129.09;4990274;28;102903;-62
2023/05/11 08:49:58;;;;;;;0.40;0.40;;;;;;;10.23;100.00;96123.44;4992372;28;101825;-61
2023/05/11 08:52:26;;;;;;;0.40;0.40;;;;;;;10.26;100.00;96122.97;4988356;28;105714;-61
2023/05/11 08:54:53;;;;;;;0.37;0.37;;;;;;;9.97;100.00;96122.41;4989198;28;102622;-61
2023/05/11 08:57:21;;;;;;;0.33;0.33;;;;;;;9.93;100.00;96120.53;4996020;28;101696;-61
2023/05/11 08:59:49;;;;;;;0.50;0.50;;;;;;;9.81;100.00;96117.25;4996267;28;102398;-62
2023/05/11 09:02:17;;;;;;;0.40;0.40;;;;;;;9.98;100.00;96120.56;4995829;28;102612;-62
2023/05/11 09:04:47;;;;;;;0.50;0.50;;;;;;;10.42;100.00;96120.16;4996230;28;102628;-61
2023/05/11 09:07:16;;;;;;;0.40;0.40;;;;;;;10.46;100.00;96118.59;4994592;28;104904;-61
2023/05/11 09:09:43;;;;;;;0.40;0.40;;;;;;;10.55;100.00;96111.75;4995521;28;102376;-62
2023/05/11 09:12:13;;;;;;;0.60;0.60;;;;;;;10.81;100.00;96115.34;4999827;28;101890;-62
2023/05/11 09:14:40;;;;;;;0.30;0.30;;;;;;;10.55;100.00;96113.59;4995407;28;102640;-61
2023/05/11 09:17:07;;;;;;;0.30;0.30;;;;;;;10.86;100.00;96107.38;4994711;28;102109;-62
2023/05/11 09:19:34;;;;;;;0.40;0.40;;;;;;;10.94;100.00;96109.53;4995961;28;102313;-61
2023/05/11 09:22:05;;;;;;;0.57;0.50;;;;;;;10.50;100.00;96110.88;4995266;28;102516;-61
2023/05/11 09:24:32;;;;;;;0.40;0.40;;;;;;;10.43;100.00;96112.97;4994435;28;102323;-61
2023/05/11 09:27:08;;;;;;;1.23;0.50;;;;;;;10.58;100.00;96107.78;4996425;28;102259;-61
2023/05/11 09:29:36;;;;;;;0.50;0.50;;;;;;;10.49;100.00;96115.44;4995600;28;103053;-61
2023/05/11 09:32:03;;;;;;;0.50;0.50;;;;;;;10.58;100.00;96103.22;4999398;28;102107;-62
2023/05/11 09:34:29;;;;;;;0.37;0.37;;;;;;;10.46;100.00;96107.16;5010334;28;105771;-62
2023/05/11 09:36:57;;;;;;;0.50;0.50;;;;;;;10.62;100.00;96098.19;4996147;28;102060;-61
2023/05/11 09:39:33;;;;;;;0.37;0.37;;;;;;;10.54;100.00;96107.50;4995791;28;102517;-62
2023/05/11 09:42:13;;;;;;;1.60;0.60;;;;;;;10.67;100.00;96101.69;4994907;28;101856;-62
2023/05/11 09:44:42;;;;;;;0.53;0.50;;;;;;;10.79;100.00;96091.66;4996163;28;102354;-62
2023/05/11 09:47:13;;;;;;;0.40;0.37;;;;;;;10.55;100.00;96097.63;4995908;28;102845;-61
2023/05/11 09:49:42;;;;;;;0.50;0.50;;;;;;;10.63;100.00;96094.50;4994999;28;103302;-61
2023/05/11 09:52:10;;;;;;;0.37;0.37;;;;;;;10.38;100.00;96092.50;4977704;28;102106;-61
2023/05/11 09:54:43;;;;;;;0.30;0.30;;;;;;;10.33;100.00;96097.78;4996737;28;105627;-61
2023/05/11 09:57:24;;;;;;;0.50;0.47;;;;;;;10.42;100.00;96104.19;4996129;28;101754;-61
2023/05/11 09:59:52;;;;;;;0.30;0.30;;;;;;;10.55;100.00;96102.94;4994350;28;105328;-61
2023/05/11 10:02:21;;;;;;;0.30;0.30;;;;;;;10.58;100.00;96094.47;4977210;28;105332;-61
2023/05/11 10:04:48;;;;;;;0.40;0.40;;;;;;;10.47;100.00;96096.25;5005798;28;102554;-61
2023/05/11 10:07:29;;;;;;;0.40;0.40;;;;;;;10.37;100.00;96100.72;5013072;28;104786;-61
2023/05/11 10:09:59;;;;;;;0.40;0.40;;;;;;;10.47;100.00;96101.56;5010332;28;105009;-61
2023/05/11 10:12:26;;;;;;;0.87;0.50;;;;;;;10.39;100.00;96101.25;5012111;28;101990;-61
2023/05/11 10:14:55;;;;;;;0.30;0.30;;;;;;;10.52;100.00;96100.81;5012349;28;102649;-61
2023/05/11 10:17:23;;;;;;;0.30;0.30;;;;;;;10.76;100.00;96099.34;5013183;28;105464;-61
2023/05/11 10:19:49;;;;;;;1.23;0.40;;;;;;;10.86;100.00;96091.44;5010559;28;104867;-61
2023/05/11 10:22:17;;;;;;;0.40;0.40;;;;;;;11.09;100.00;96093.66;5009985;28;105666;-61
2023/05/11 10:24:44;;;;;;;0.30;0.30;;;;;;;10.91;100.00;96091.47;5010758;28;101949;-61
2023/05/11 10:27:13;;;;;;;0.20;0.20;;;;;;;10.60;100.00;96089.69;5010762;28;105432;-62
2023/05/11 10:29:40;;;;;;;1.13;0.30;;;;;;;10.52;100.00;96096.28;5009874;28;105171;-61
2023/05/11 10:32:08;;;;;;;0.40;0.40;;;;;;;10.51;100.00;96088.56;5010619;28;102443;-61
2023/05/11 10:34:34;;;;;;;0.40;0.40;;;;;;;10.39;100.00;96088.78;5010624;28;104867;-61
2023/05/11 10:37:02;;;;;;;0.30;0.30;;;;;;;10.31;100.00;96091.09;5010054;28;105309;-61
2023/05/11 10:39:29;;;;;;;0.50;0.40;;;;;;;10.18;100.00;96086.22;5013860;28;102023;-61
2023/05/11 10:42:11;;;;;;;0.20;0.20;;;;;;;10.27;100.00;96090.81;5009567;28;105563;-61
2023/05/11 10:45:21;;;;;;;0.30;0.30;;;;;;;10.44;100.00;96082.69;5010465;28;101708;-61
2023/05/11 10:48:30;;;;;;;0.23;0.23;;;;;;;10.55;100.00;96082.50;4989046;28;105469;-61
2023/05/11 10:51:10;;;;;;;0.40;0.30;;;;;;;10.41;100.00;96084.00;4983336;28;106490;-61
2023/05/11 10:53:48;;;;;;;0.30;0.30;;;;;;;10.40;100.00;96085.06;5010078;28;102343;-61
2023/05/11 10:56:34;;;;;;;0.30;0.30;;;;;;;10.51;100.00;96083.25;5010139;28;104907;-61
2023/05/11 10:59:27;;;;;;;0.20;0.20;;;;;;;10.50;100.00;96076.34;5009572;28;105037;-61
2023/05/11 11:01:57;;;;;;;0.40;0.40;;;;;;;10.75;100.00;96076.47;5010019;28;101975;-61
2023/05/11 11:04:25;;;;;;;0.40;0.40;;;;;;;10.51;100.00;96075.25;5013024;28;105196;-61
2023/05/11 11:07:05;;;;;;;0.30;0.30;;;;;;;10.46;100.00;96080.59;5010159;28;101813;-61
2023/05/11 11:09:52;;;;;;;0.30;0.30;;;;;;;10.47;100.00;96076.88;5011467;28;102311;-61
2023/05/11 11:12:21;;;;;;;0.43;0.43;;;;;;;10.50;100.00;96076.34;5009631;28;105208;-61
2023/05/11 11:14:56;;;;;;;0.50;0.50;;;;;;;10.54;100.00;96075.59;5009687;28;102143;-61
2023/05/11 11:17:27;;;;;;;0.40;0.40;;;;;;;10.55;100.00;96071.84;5010749;28;102323;-61
2023/05/11 11:19:55;;;;;;;0.40;0.40;;;;;;;10.46;100.00;96069.94;5008403;28;105477;-61
2023/05/11 11:22:45;;;;;;;0.83;0.60;;;;;;;10.41;100.00;96077.88;5009800;28;101921;-61
2023/05/11 11:25:15;;;;;;;0.70;0.70;;;;;;;10.34;100.00;96080.75;5008499;28;106305;-61
2023/05/11 11:27:58;;;;;;;0.60;0.43;;;;;;;10.47;100.00;96068.88;5010911;28;105307;-61
2023/05/11 11:30:29;;;;;;;1.07;0.70;;;;;;;10.38;100.00;96075.72;5007177;28;102315;-61
2023/05/11 11:33:34;;;;;;;0.40;0.40;;;;;;;10.44;100.00;96066.72;5007443;28;105508;-61
2023/05/11 11:36:01;;;;;;;0.80;0.60;;;;;;;10.39;100.00;96069.34;5009129;28;102011;-61
2023/05/11 11:38:31;;;;;;;0.63;0.43;;;;;;;10.49;100.00;96069.41;5007497;28;105084;-61
2023/05/11 11:40:58;;;;;;;0.50;0.50;;;;;;;10.65;100.00;96071.09;5008551;28;103074;-61
2023/05/11 11:43:27;;;;;;;0.70;0.70;;;;;;;10.41;100.00;96075.22;5002709;28;103168;-61
2023/05/11 11:45:54;;;;;;;0.80;0.80;;;;;;;10.42;100.00;96066.19;5007369;28;102292;-61
2023/05/11 11:48:29;;;;;;;0.50;0.50;;;;;;;10.15;100.00;96076.09;5012015;28;102729;-61
2023/05/11 11:51:05;;;;;;;1.50;1.33;;;;;;;10.22;100.00;96068.72;5006233;28;104414;-61
2023/05/11 11:54:06;;;;;;;0.70;0.70;;;;;;;10.36;100.00;96072.53;5004860;28;105748;-61
2023/05/11 11:56:46;;;;;;;0.33;0.33;;;;;;;10.43;100.00;96078.44;5007065;28;101902;-61
2023/05/11 11:59:14;;;;;;;0.40;0.40;;;;;;;10.39;100.00;96072.00;5006415;28;102816;-61
2023/05/11 12:01:42;;;;;;;0.40;0.40;;;;;;;10.38;100.00;96075.72;5008545;28;102530;-61
2023/05/11 12:04:46;;;;;;;0.40;0.40;;;;;;;10.57;100.00;96071.59;5008994;28;101960;-61
2023/05/11 12:07:16;;;;;;;0.43;0.43;;;;;;;10.46;100.00;96069.94;4996651;28;102731;-61
2023/05/11 12:09:46;;;;;;;0.47;0.47;;;;;;;10.61;100.00;96078.00;5008381;28;102661;-61
2023/05/11 12:12:13;;;;;;;1.00;0.40;;;;;;;10.62;100.00;96076.94;5009194;28;101911;-61
2023/05/11 12:14:47;;;;;;;1.03;0.40;;;;;;;10.62;100.00;96082.25;5008807;28;102696;-61
2023/05/11 12:17:23;;;;;;;0.40;0.40;;;;;;;10.49;100.00;96077.41;5007557;28;101963;-61
2023/05/11 12:19:50;;;;;;;0.77;0.40;;;;;;;10.41;100.00;96075.22;5009326;28;102391;-61
2023/05/11 12:22:24;;;;;;;0.53;0.50;;;;;;;10.34;100.00;96080.75;5008268;28;102518;-61
2023/05/11 12:24:52;;;;;;;0.40;0.40;;;;;;;10.45;100.00;96076.31;5006609;28;102313;-61
2023/05/11 12:27:18;;;;;;;0.83;0.53;;;;;;;10.68;100.00;96078.59;5009094;28;103401;-61
2023/05/11 12:29:49;;;;;;;0.70;0.70;;;;;;;10.68;100.00;96081.25;5008017;28;103142;-61
2023/05/11 12:32:28;;;;;;;1.03;0.40;;;;;;;10.76;100.00;96072.75;5008789;28;102239;-61
2023/05/11 12:35:00;;;;;;;0.77;0.40;;;;;;;10.51;100.00;96069.94;5012269;28;102335;-61
2023/05/11 12:37:29;;;;;;;0.60;0.60;;;;;;;10.74;100.00;96077.53;5009293;28;101740;-61
2023/05/11 12:39:57;;;;;;;1.60;0.40;;;;;;;10.70;100.00;96071.94;5008777;28;103455;-61
2023/05/11 12:42:24;;;;;;;0.47;0.47;;;;;;;10.80;100.00;96076.50;5008553;28;102694;-61
2023/05/11 12:44:52;;;;;;;0.50;0.50;;;;;;;10.98;100.00;96070.72;4991718;28;101926;-61
2023/05/11 12:47:19;;;;;;;0.70;0.70;;;;;;;10.86;100.00;96067.50;5009834;28;102550;-61
2023/05/11 12:49:46;;;;;;;0.57;0.57;;;;;;;10.90;100.00;96072.03;4991079;28;105367;-61
2023/05/11 12:52:13;;;;;;;2.17;2.07;;;;;;;11.00;100.00;96064.09;5009644;28;101834;-61
2023/05/11 12:54:50;;;;;;;0.80;0.80;;;;;;;10.95;100.00;96066.72;5009665;28;102317;-61
2023/05/11 12:57:24;;;;;;;0.40;0.40;;;;;;;10.95;100.00;96065.94;4994345;28;105358;-61
2023/05/11 13:00:10;;;;;;;0.43;0.40;;;;;;;10.85;100.00;96066.69;4991235;28;105328;-61
2023/05/11 13:02:44;;;;;;;0.50;0.50;;;;;;;10.76;100.00;96067.44;5007791;28;105457;-61
2023/05/11 13:05:12;;;;;;;1.10;1.10;;;;;;;10.87;100.00;96066.44;4991803;28;101802;-61
2023/05/11 13:07:40;;;;;;;0.73;0.50;;;;;;;10.99;100.00;96065.16;4991413;28;104878;-61
2023/05/11 13:10:09;;;;;;;2.07;1.40;;;;;;;11.10;100.00;96058.00;5008815;28;102689;-61
2023/05/11 13:12:47;;;;;;;1.00;1.00;;;;;;;10.97;100.00;96053.16;4991422;28;102268;-61
2023/05/11 13:15:14;;;;;;;0.50;0.50;;;;;;;11.02;100.00;96051.31;4991551;28;104871;-61
2023/05/11 13:17:43;;;;;;;1.00;0.80;;;;;;;10.69;100.00;96051.72;4990429;28;105857;-61
2023/05/11 13:20:18;;;;;;;1.10;0.73;;;;;;;10.89;100.00;96053.66;5011190;28;102429;-61
2023/05/11 13:22:46;;;;;;;0.70;0.70;;;;;;;10.75;100.00;96053.31;4990379;28;105284;-61
2023/05/11 13:25:16;;;;;;;0.80;0.80;;;;;;;10.83;100.00;96055.50;4990585;28;101917;-61
2023/05/11 13:27:43;;;;;;;3.50;3.20;;;;;;;10.86;100.00;96046.22;5009513;28;102508;-61
2023/05/11 13:30:11;;;;;;;1.40;1.30;;;;;;;10.90;100.00;96048.09;4990519;28;103901;-61
2023/05/11 13:32:38;;;;;;;15.87;11.87;;;;;;;10.90;100.00;96044.63;5009399;28;101852;-61
2023/05/11 13:35:06;;;;;;;13.50;10.13;;;;;;;10.77;100.00;96045.91;4990021;28;105557;-61
2023/05/11 13:37:33;;;;;;;1.20;0.97;;;;;;;10.62;100.00;96045.84;5007671;28;102735;-61
2023/05/11 13:40:00;;;;;;;0.70;0.70;;;;;;;10.76;100.00;96048.81;4990793;28;101976;-61
2023/05/11 13:42:29;;;;;;;0.60;0.60;;;;;;;10.70;100.00;96047.19;4995398;28;104387;-61
2023/05/11 13:44:56;;;;;;;0.90;0.90;;;;;;;10.80;100.00;96052.56;4994286;28;101884;-61
2023/05/11 13:47:24;;;;;;;2.40;2.20;;;;;;;10.89;100.00;96051.00;4994248;28;104833;-61
2023/05/11 13:49:52;;;;;;;2.20;2.10;;;;;;;10.99;100.00;96048.38;4993713;28;103795;-61
2023/05/11 13:52:19;;;;;;;1.60;1.47;;;;;;;10.98;100.00;96054.75;4994272;28;102362;-61
2023/05/11 13:54:46;;;;;;;2.87;1.20;;;;;;;10.91;100.00;96046.22;4993690;28;105058;-61
2023/05/11 13:57:13;;;;;;;0.80;0.80;;;;;;;10.81;100.00;96046.19;4993997;28;105453;-61
2023/05/11 13:59:41;;;;;;;1.60;1.50;;;;;;;10.78;100.00;96055.47;5012333;28;102383;-61
2023/05/11 14:02:08;;;;;;;1.23;0.93;;;;;;;10.82;100.00;96045.94;4997064;28;105335;-61
2023/05/11 14:04:35;;;;;;;0.90;0.90;;;;;;;10.92;100.00;96045.16;4994177;28;101878;-61
2023/05/11 14:07:02;;;;;;;0.67;0.67;;;;;;;10.98;100.00;96049.44;4994083;28;104868;-61
2023/05/11 14:09:29;;;;;;;0.60;0.60;;;;;;;11.01;100.00;96051.59;5011317;28;103163;-61
2023/05/11 14:11:56;;;;;;;2.20;0.80;;;;;;;11.03;100.00;96047.63;5012556;28;101818;-61
2023/05/11 14:14:23;;;;;;;0.60;0.60;;;;;;;10.89;100.00;96045.69;4994018;28;105515;-61
2023/05/11 14:16:51;;;;;;;1.70;0.83;;;;;;;10.80;100.00;96036.63;4993091;28;105158;-61
2023/05/11 14:19:18;;;;;;;33.07;25.63;;;;;;;10.78;100.00;96047.50;5011913;28;101890;-61
2023/05/11 14:21:45;;;;;;;12.97;8.77;;;;;;;10.71;100.00;96048.78;4992799;28;105258;-61
2023/05/11 14:24:12;;;;;;;0.80;0.80;;;;;;;10.72;100.00;96039.75;4996183;28;105486;-61
2023/05/11 14:26:39;;;;;;;0.70;0.70;;;;;;;10.67;100.00;96031.75;4994087;28;103666;-61
2023/05/11 14:29:06;;;;;;;0.60;0.60;;;;;;;10.77;100.00;96031.81;4993136;28;104056;-61
2023/05/11 14:31:32;;;;;;;44.03;30.70;;;;;;;10.73;100.00;96030.72;4993903;28;102082;-61
2023/05/11 14:34:02;;;;;;;8.07;6.00;;;;;;;10.76;100.00;96033.69;4992757;28;105629;-61
2023/05/11 14:36:29;;;;;;;8.60;5.90;;;;;;;10.89;100.00;96035.84;4993017;28;105458;-61
2023/05/11 14:38:56;;;;;;;1.60;1.07;;;;;;;10.71;100.00;96028.34;4993718;28;102111;-61
2023/05/11 14:41:23;;;;;;;28.40;18.13;;;;;;;10.79;100.00;96025.16;4993784;28;104787;-61
2023/05/11 14:43:50;;;;;;;19.77;14.63;;;;;;;10.89;100.00;96035.03;5002232;28;106170;-61
2023/05/11 14:46:17;;;;;;;5.93;4.30;;;;;;;10.69;100.00;96029.66;5010763;28;102212;-60
2023/05/11 14:48:43;;;;;;;4.13;3.73;;;;;;;10.90;100.00;96031.34;5008938;28;105082;-62
2023/05/11 14:51:12;;;;;;;3.00;2.20;;;;;;;10.85;100.00;96029.44;5010892;28;102578;-61
2023/05/11 14:53:39;;;;;;;12.20;10.97;;;;;;;10.85;100.00;96029.44;5029501;28;102775;-62
2023/05/11 14:56:06;;;;;;;1.60;1.50;;;;;;;10.84;100.00;96033.16;5001958;28;105370;-62
2023/05/11 14:58:33;;;;;;;3.27;2.93;;;;;;;10.97;100.00;96031.88;4990066;28;101894;-61
2023/05/11 15:01:00;;;;;;;3.10;2.90;;;;;;;10.92;100.00;96034.53;4989780;28;105072;-62
2023/05/11 15:03:27;;;;;;;18.33;15.30;;;;;;;10.83;100.00;96025.44;4998020;28;105061;-62
2023/05/11 15:05:54;;;;;;;2.43;2.23;;;;;;;10.84;100.00;96032.38;5027577;28;102055;-62
2023/05/11 15:08:22;;;;;;;14.50;11.83;;;;;;;10.62;100.00;96037.84;5015667;28;103751;-62
2023/05/11 15:10:49;;;;;;;1.00;1.00;;;;;;;10.61;100.00;96038.91;5006766;28;103407;-62
2023/05/11 15:13:16;;;;;;;0.90;0.90;;;;;;;10.65;100.00;96037.34;5013522;28;105018;-62
2023/05/11 15:15:43;;;;;;;0.90;0.90;;;;;;;10.64;100.00;96042.91;5011459;28;105008;-61
2023/05/11 15:18:13;;;;;;;0.90;0.90;;;;;;;10.72;100.00;96035.25;5012974;28;102452;-62
2023/05/11 15:20:41;;;;;;;1.63;1.50;;;;;;;10.63;100.00;96041.31;4995029;28;105836;-62
2023/05/11 15:23:08;;;;;;;1.43;1.33;;;;;;;10.53;100.00;96039.41;4971965;28;105372;-62
2023/05/11 15:25:36;;;;;;;1.17;1.10;;;;;;;10.49;100.00;96045.50;4982125;28;102334;-62
2023/05/11 15:28:04;;;;;;;1.33;0.90;;;;;;;10.44;100.00;96042.81;5010548;28;105055;-62
2023/05/11 15:30:31;;;;;;;0.80;0.80;;;;;;;10.34;100.00;96040.91;5015240;28;104220;-62
2023/05/11 15:32:58;;;;;;;2.97;1.00;;;;;;;10.32;100.00;96044.88;5020978;28;104933;-62
2023/05/11 15:35:25;;;;;;;1.77;1.50;;;;;;;10.40;100.00;96050.50;4989067;28;105021;-62
2023/05/11 15:37:52;;;;;;;4.23;3.83;;;;;;;10.40;100.00;96041.72;5010304;28;101950;-62
2023/05/11 15:40:19;;;;;;;6.83;5.43;;;;;;;10.37;100.00;96037.72;5012457;28;104702;-62
2023/05/11 15:42:47;;;;;;;3.73;3.40;;;;;;;10.41;100.00;96048.66;4989843;28;105513;-62
2023/05/11 15:45:14;;;;;;;1.67;1.57;;;;;;;10.51;100.00;96043.38;4989334;28;102312;-62
2023/05/11 15:47:41;;;;;;;1.20;1.10;;;;;;;10.37;100.00;96047.56;5026097;28;102645;-62
2023/05/11 15:50:08;;;;;;;0.90;0.90;;;;;;;10.48;100.00;96044.69;5011948;28;103929;-62
2023/05/11 15:52:35;;;;;;;1.20;1.10;;;;;;;10.42;100.00;96044.94;5015313;28;102151;-62